createdAt,value
2018-04-12T00:01:51.377Z,96324.97
2018-04-12T00:04:18.956Z,96320.83
2018-04-12T00:06:46.633Z,96312.25
2018-04-12T00:09:14.449Z,96301.73
2018-04-12T00:11:42.488Z,96294.48
2018-04-12T00:14:10.095Z,96293.21
2018-04-12T00:16:37.806Z,96283.42
2018-04-12T00:19:05.448Z,96280.83
2018-04-12T00:21:33.018Z,96276.91
2018-04-12T00:24:00.671Z,96272.66
2018-04-12T00:26:28.335Z,96265.62
2018-04-12T00:28:55.944Z,96268.70
2018-04-12T00:31:23.509Z,96259.89
2018-04-12T00:33:51.079Z,96250.95
2018-04-12T00:36:18.710Z,96250.31
2018-04-12T00:38:46.439Z,96245.77
2018-04-12T00:41:14.050Z,96232.09
2018-04-12T00:43:41.637Z,96220.72
2018-04-12T00:46:09.369Z,96218.05
2018-04-12T00:48:36.954Z,96214.47
2018-04-12T00:51:04.661Z,96206.98
2018-04-12T00:53:44.099Z,96210.12
2018-04-12T00:56:11.790Z,96197.90
2018-04-12T00:58:39.454Z,96200.74
2018-04-12T01:01:07.096Z,96201.83
2018-04-12T01:03:34.777Z,96209.42
2018-04-12T01:06:02.441Z,96206.37
2018-04-12T01:08:30.090Z,96212.72
2018-04-12T01:10:57.792Z,96213.89
2018-04-12T01:13:25.332Z,96210.45
2018-04-12T01:15:52.903Z,96206.91
2018-04-12T01:18:20.438Z,96213.63
2018-04-12T01:20:48.187Z,96216.08
2018-04-12T01:23:15.928Z,96217.64
2018-04-12T01:25:43.461Z,96216.86
2018-04-12T01:28:11.027Z,96223.06
2018-04-12T01:30:38.549Z,96219.73
2018-04-12T01:33:16.907Z,96216.80
2018-04-12T01:35:44.532Z,96219.42
2018-04-12T01:38:12.302Z,96221.13
2018-04-12T01:40:39.926Z,96230.30
2018-04-12T01:43:07.476Z,96230.73
2018-04-12T01:45:35.143Z,96228.56
2018-04-12T01:48:02.785Z,96220.96
2018-04-12T01:50:30.405Z,96225.19
2018-04-12T01:52:58.115Z,96226.79
2018-04-12T01:55:25.826Z,96226.36
2018-04-12T01:57:53.386Z,96229.80
2018-04-12T02:00:21.047Z,96217.39
2018-04-12T02:02:48.912Z,96223.80
2018-04-12T02:05:16.700Z,96210.52
2018-04-12T02:07:44.256Z,96217.80
2018-04-12T02:10:11.842Z,96218.59
2018-04-12T02:12:39.363Z,96207.09
2018-04-12T02:15:06.877Z,96200.01
2018-04-12T02:17:34.596Z,96197.31
2018-04-12T02:20:02.356Z,96193.44
2018-04-12T02:22:29.997Z,96188.13
2018-04-12T02:24:57.644Z,96174.91
2018-04-12T02:27:25.386Z,96179.77
2018-04-12T02:29:53.183Z,96173.10
2018-04-12T02:32:20.817Z,96174.33
2018-04-12T02:34:48.466Z,96166.92
2018-04-12T02:37:16.288Z,96159.42
2018-04-12T02:39:43.918Z,96167.17
2018-04-12T02:42:11.665Z,96161.46
2018-04-12T02:44:39.409Z,96158.89
2018-04-12T02:47:07.033Z,96163.09
2018-04-12T02:49:34.568Z,96165.39
2018-04-12T02:52:02.288Z,96167.25
2018-04-12T02:54:29.827Z,96155.67
2018-04-12T02:56:57.439Z,96152.53
2018-04-12T02:59:25.213Z,96161.06
2018-04-12T03:01:52.885Z,96168.66
2018-04-12T03:04:20.643Z,96160.84
2018-04-12T03:06:48.322Z,96165.71
2018-04-12T03:09:16.000Z,96162.88
2018-04-12T03:11:43.724Z,96163.12
2018-04-12T03:14:11.463Z,96169.56
2018-04-12T03:16:39.058Z,96183.18
2018-04-12T03:19:06.702Z,96180.60
2018-04-12T03:21:34.373Z,96185.98
2018-04-12T03:24:02.197Z,96186.80
2018-04-12T03:26:29.908Z,96197.71
2018-04-12T03:28:57.726Z,96187.75
2018-04-12T03:31:25.330Z,96184.16
2018-04-12T03:33:53.031Z,96184.16
2018-04-12T03:36:20.659Z,96185.45
2018-04-12T03:38:48.383Z,96182.30
2018-04-12T03:41:16.022Z,96178.54
2018-04-12T03:43:43.828Z,96178.65
2018-04-12T03:46:11.373Z,96176.06
2018-04-12T03:48:39.035Z,96184.02
2018-04-12T03:51:06.678Z,96181.61
2018-04-12T03:53:36.094Z,96191.94
2018-04-12T03:56:03.664Z,96200.11
2018-04-12T03:58:31.422Z,96203.00
2018-04-12T04:01:03.088Z,96202.94
2018-04-12T04:03:32.083Z,96202.34
2018-04-12T04:05:59.747Z,96200.08
2018-04-12T04:08:27.341Z,96210.70
2018-04-12T04:10:54.982Z,96204.56
2018-04-12T04:13:23.039Z,96210.20
2018-04-12T04:16:02.673Z,96212.26
2018-04-12T04:18:42.313Z,96207.23
2018-04-12T04:21:10.092Z,96217.03
2018-04-12T04:23:38.701Z,96209.67
2018-04-12T04:26:06.734Z,96218.84
2018-04-12T04:28:34.657Z,96222.48
2018-04-12T04:31:02.438Z,96219.55
2018-04-12T04:33:30.079Z,96223.85
2018-04-12T04:35:57.717Z,96216.64
2018-04-12T04:38:25.625Z,96217.67
2018-04-12T04:40:53.464Z,96212.90
2018-04-12T04:43:21.223Z,96205.66
2018-04-12T04:45:48.901Z,96206.09
2018-04-12T04:48:16.710Z,96209.03
2018-04-12T04:50:44.613Z,96210.09
2018-04-12T04:53:12.325Z,96219.28
2018-04-12T04:55:40.072Z,96212.23
2018-04-12T04:58:07.676Z,96227.13
2018-04-12T05:00:35.462Z,96237.29
2018-04-12T05:03:03.380Z,96248.78
2018-04-12T05:05:31.240Z,96245.11
2018-04-12T05:07:59.114Z,96250.30
2018-04-12T05:10:26.958Z,96251.27
2018-04-12T05:12:54.726Z,96252.55
2018-04-12T05:15:22.742Z,96244.77
2018-04-12T05:17:50.348Z,96246.18
2018-04-12T05:20:18.098Z,96253.73
2018-04-12T05:22:45.822Z,96258.81
2018-04-12T05:25:13.968Z,96263.36
2018-04-12T05:27:41.603Z,96255.91
2018-04-12T05:30:09.424Z,96243.09
2018-04-12T05:32:37.264Z,96257.95
2018-04-12T05:35:05.122Z,96257.55
2018-04-12T05:37:33.599Z,96253.80
2018-04-12T05:40:01.421Z,96262.46
2018-04-12T05:42:29.222Z,96265.09
2018-04-12T05:44:56.838Z,96264.16
2018-04-12T05:47:24.952Z,96267.05
2018-04-12T05:49:52.754Z,96262.52
2018-04-12T05:52:20.384Z,96257.17
2018-04-12T05:54:48.192Z,96265.83
2018-04-12T05:57:15.857Z,96259.05
2018-04-12T05:59:43.922Z,96259.71
2018-04-12T06:02:11.586Z,96255.64
2018-04-12T06:04:39.672Z,96258.25
2018-04-12T06:07:07.440Z,96251.66
2018-04-12T06:09:35.022Z,96251.25
2018-04-12T06:12:02.650Z,96250.64
2018-04-12T06:14:30.464Z,96244.00
2018-04-12T06:16:58.155Z,96243.86
2018-04-12T06:19:26.538Z,96249.34
2018-04-12T06:21:54.158Z,96252.23
2018-04-12T06:24:21.897Z,96253.22
2018-04-12T06:26:49.754Z,96248.38
2018-04-12T06:29:17.458Z,96242.08
2018-04-12T06:31:45.214Z,96238.70
2018-04-12T06:34:12.894Z,96235.06
2018-04-12T06:36:40.580Z,96227.59
2018-04-12T06:39:08.586Z,96232.62
2018-04-12T06:41:36.456Z,96228.74
2018-04-12T06:44:04.570Z,96216.39
2018-04-12T06:46:32.327Z,96215.44
2018-04-12T06:48:59.889Z,96212.72
2018-04-12T06:51:27.644Z,96218.45
2018-04-12T06:53:55.261Z,96214.76
2018-04-12T06:56:22.872Z,96227.30
2018-04-12T06:58:50.719Z,96232.23
2018-04-12T07:01:18.513Z,96240.85
2018-04-12T07:03:46.251Z,96237.20
2018-04-12T07:06:13.893Z,96233.38
2018-04-12T07:08:41.536Z,96220.56
2018-04-12T07:11:09.463Z,96219.83
2018-04-12T07:13:37.307Z,96219.31
2018-04-12T07:16:05.208Z,96229.72
2018-04-12T07:18:32.998Z,96245.86
2018-04-12T07:21:00.888Z,96257.63
2018-04-12T07:23:28.527Z,96263.09
2018-04-12T07:25:56.393Z,96257.78
2018-04-12T07:28:24.257Z,96257.76
2018-04-12T07:30:51.985Z,96261.81
2018-04-12T07:33:19.745Z,96273.80
2018-04-12T07:35:47.517Z,96291.27
2018-04-12T07:38:15.243Z,96301.56
2018-04-12T07:40:42.966Z,96304.64
2018-04-12T07:43:10.990Z,96296.08
2018-04-12T07:45:39.026Z,96305.73
2018-04-12T07:48:06.941Z,96304.62
2018-04-12T07:50:35.016Z,96305.53
2018-04-12T07:53:02.901Z,96323.30
2018-04-12T07:55:31.084Z,96331.86
2018-04-12T07:57:58.817Z,96335.09
2018-04-12T08:00:27.183Z,96334.84
2018-04-12T08:02:55.055Z,96332.69
2018-04-12T08:05:22.875Z,96342.63
2018-04-12T08:07:50.609Z,96345.68
2018-04-12T08:10:18.471Z,96349.17
2018-04-12T08:12:46.146Z,96360.18
2018-04-12T08:15:14.068Z,96356.45
2018-04-12T08:17:41.873Z,96360.81
2018-04-12T08:20:09.598Z,96358.05
2018-04-12T08:22:37.323Z,96358.29
2018-04-12T08:25:05.063Z,96359.34
2018-04-12T08:27:32.863Z,96357.70
2018-04-12T08:30:00.684Z,96365.96
2018-04-12T08:32:28.450Z,96373.69
2018-04-12T08:34:56.128Z,96380.55
2018-04-12T08:37:23.903Z,96384.72
2018-04-12T08:39:51.498Z,96380.91
2018-04-12T08:42:19.209Z,96385.58
2018-04-12T08:44:46.863Z,96379.86
2018-04-12T08:47:14.579Z,96367.34
2018-04-12T08:49:42.289Z,96356.86
2018-04-12T08:52:10.320Z,96358.77
2018-04-12T08:54:38.026Z,96371.08
2018-04-12T08:57:05.834Z,96384.83
2018-04-12T08:59:33.468Z,96391.60
2018-04-12T09:02:01.013Z,96392.11
2018-04-12T09:04:28.626Z,96393.05
2018-04-12T09:06:56.288Z,96387.03
2018-04-12T09:09:24.063Z,96398.28
2018-04-12T09:11:51.819Z,96393.00
2018-04-12T09:14:19.629Z,96394.81
2018-04-12T09:16:47.229Z,96405.94
2018-04-12T09:19:14.774Z,96402.98
2018-04-12T09:21:42.390Z,96410.19
2018-04-12T09:24:10.255Z,96406.38
2018-04-12T09:26:38.184Z,96401.75
2018-04-12T09:29:05.913Z,96399.74
2018-04-12T09:31:33.575Z,96406.20
2018-04-12T09:34:01.325Z,96408.73
2018-04-12T09:36:29.168Z,96413.63
2018-04-12T09:38:56.810Z,96424.16
2018-04-12T09:41:24.445Z,96414.00
2018-04-12T09:43:52.666Z,96416.35
2018-04-12T09:46:20.321Z,96419.64
2018-04-12T09:48:48.002Z,96427.66
2018-04-12T09:51:15.619Z,96433.05
2018-04-12T09:53:43.387Z,96440.53
2018-04-12T09:56:11.011Z,96437.92
2018-04-12T09:58:38.714Z,96441.37
2018-04-12T10:01:14.986Z,96434.14
2018-04-12T10:03:44.473Z,96425.65
2018-04-12T10:06:17.886Z,96429.33
2018-04-12T10:08:51.151Z,96417.21
2018-04-12T10:11:18.759Z,96420.17
2018-04-12T10:13:46.365Z,96422.41
2018-04-12T10:16:14.055Z,96429.19
2018-04-12T10:18:41.735Z,96425.50
2018-04-12T10:21:09.326Z,96429.13
2018-04-12T10:23:36.956Z,96436.66
2018-04-12T10:26:04.707Z,96428.69
2018-04-12T10:28:32.404Z,96420.87
2018-04-12T10:31:00.175Z,96422.31
2018-04-12T10:33:27.889Z,96423.08
2018-04-12T10:35:55.545Z,96415.95
2018-04-12T10:38:23.150Z,96417.48
2018-04-12T10:40:50.976Z,96402.30
2018-04-12T10:43:18.600Z,96399.28
2018-04-12T10:45:46.510Z,96402.25
2018-04-12T10:48:14.081Z,96393.41
2018-04-12T10:50:41.822Z,96393.26
2018-04-12T10:53:09.502Z,96403.10
2018-04-12T10:55:37.066Z,96405.66
2018-04-12T10:58:04.689Z,96408.89
2018-04-12T11:00:32.477Z,96421.56
2018-04-12T11:03:00.130Z,96420.00
2018-04-12T11:05:27.795Z,96415.69
2018-04-12T11:07:55.429Z,96414.25
2018-04-12T11:10:23.012Z,96407.77
2018-04-12T11:12:50.935Z,96410.34
2018-04-12T11:15:18.821Z,96402.82
2018-04-12T11:17:46.530Z,96400.56
2018-04-12T11:20:14.209Z,96401.23
2018-04-12T11:22:42.019Z,96395.69
2018-04-12T11:25:09.654Z,96406.13
2018-04-12T11:27:37.394Z,96395.83
2018-04-12T11:30:05.044Z,96398.54
2018-04-12T11:32:32.604Z,96397.97
2018-04-12T11:35:00.382Z,96395.65
2018-04-12T11:37:28.178Z,96397.63
2018-04-12T11:39:55.899Z,96402.63
2018-04-12T11:42:23.454Z,96417.65
2018-04-12T11:44:51.389Z,96415.78
2018-04-12T11:47:19.079Z,96422.86
2018-04-12T11:49:46.845Z,96417.11
2018-04-12T11:52:14.785Z,96421.84
2018-04-12T11:54:42.317Z,96419.69
2018-04-12T11:57:10.101Z,96420.30
2018-04-12T11:59:37.724Z,96424.70
2018-04-12T12:02:05.471Z,96428.36
2018-04-12T12:04:33.129Z,96432.20
2018-04-12T12:07:00.725Z,96433.29
2018-04-12T12:09:28.379Z,96434.15
2018-04-12T12:11:56.050Z,96432.86
2018-04-12T12:14:23.754Z,96427.47
2018-04-12T12:16:51.584Z,96433.17
2018-04-12T12:19:19.359Z,96431.87
2018-04-12T12:21:47.006Z,96434.63
2018-04-12T12:24:14.620Z,96432.38
2018-04-12T12:26:42.661Z,96437.20
2018-04-12T12:29:10.944Z,96437.94
2018-04-12T12:31:39.657Z,96437.22
2018-04-12T12:34:07.342Z,96441.97
2018-04-12T12:36:35.376Z,96444.33
2018-04-12T12:39:03.859Z,96450.92
2018-04-12T12:41:31.570Z,96454.38
2018-04-12T12:43:59.398Z,96452.57
2018-04-12T12:46:28.354Z,96453.26
2018-04-12T12:48:56.230Z,96452.25
2018-04-12T12:51:23.938Z,96457.11
2018-04-12T12:53:51.721Z,96453.73
2018-04-12T12:56:19.437Z,96454.47
2018-04-12T12:58:47.106Z,96455.19
2018-04-12T13:01:14.687Z,96453.36
2018-04-12T13:03:42.369Z,96458.52
2018-04-12T13:06:10.106Z,96466.09
2018-04-12T13:08:37.776Z,96456.34
2018-04-12T13:11:05.468Z,96445.67
2018-04-12T13:13:33.281Z,96442.97
2018-04-12T13:16:01.503Z,96445.09
2018-04-12T13:18:29.132Z,96442.20
2018-04-12T13:20:56.796Z,96456.12
2018-04-12T13:23:24.464Z,96443.72
2018-04-12T13:25:52.195Z,96441.79
2018-04-12T13:28:20.080Z,96442.01
2018-04-12T13:30:47.682Z,96439.59
2018-04-12T13:33:15.395Z,96442.30
2018-04-12T13:35:43.072Z,96445.22
2018-04-12T13:38:10.756Z,96443.19
2018-04-12T13:40:38.506Z,96445.98
2018-04-12T13:43:06.035Z,96447.75
2018-04-12T13:45:33.695Z,96447.88
2018-04-12T13:51:31.556Z,96439.56
2018-04-12T13:53:59.096Z,96441.84
2018-04-12T13:56:26.804Z,96447.06
2018-04-12T13:58:54.667Z,96438.01
2018-04-12T14:01:22.521Z,96436.38
2018-04-12T14:03:50.057Z,96431.50
2018-04-12T14:06:17.590Z,96428.31
2018-04-12T14:08:46.288Z,96433.61
2018-04-12T14:11:14.167Z,96437.34
2018-04-12T14:13:41.872Z,96444.98
2018-04-12T14:16:09.647Z,96440.81
2018-04-12T14:18:37.373Z,96436.84
2018-04-12T14:21:05.171Z,96440.10
2018-04-12T14:23:32.864Z,96437.81
2018-04-12T14:26:00.635Z,96436.50
2018-04-12T14:28:28.649Z,96434.63
2018-04-12T14:30:56.876Z,96437.98
2018-04-12T14:33:24.534Z,96430.10
2018-04-12T14:35:52.410Z,96439.97
2018-04-12T14:38:20.285Z,96431.54
2018-04-12T14:40:48.595Z,96429.42
2018-04-12T14:43:16.765Z,96437.34
2018-04-12T14:45:44.652Z,96439.05
2018-04-12T14:48:12.811Z,96434.98
2018-04-12T14:50:40.904Z,96430.45
2018-04-12T14:53:09.047Z,96432.70
2018-04-12T14:55:37.074Z,96429.97
2018-04-12T14:58:05.499Z,96426.05
2018-04-12T15:00:33.881Z,96430.69
2018-04-12T15:03:02.073Z,96429.08
2018-04-12T15:05:29.733Z,96428.16
2018-04-12T15:07:57.417Z,96425.35
2018-04-12T15:10:25.068Z,96427.64
2018-04-12T15:12:52.803Z,96420.57
2018-04-12T15:15:20.795Z,96413.18
2018-04-12T15:17:48.759Z,96416.08
2018-04-12T15:20:16.677Z,96416.09
2018-04-12T15:22:44.295Z,96420.07
2018-04-12T15:25:12.034Z,96416.45
2018-04-12T15:27:40.003Z,96429.17
2018-04-12T15:30:07.959Z,96422.40
2018-04-12T15:32:35.710Z,96425.50
2018-04-12T15:35:03.624Z,96422.77
2018-04-12T15:37:31.326Z,96417.25
2018-04-12T15:39:59.280Z,96407.12
2018-04-12T15:42:26.869Z,96400.80
2018-04-12T15:44:54.620Z,96412.77
2018-04-12T15:47:22.502Z,96409.19
2018-04-12T15:49:50.346Z,96419.53
2018-04-12T15:52:18.290Z,96416.23
2018-04-12T15:54:45.801Z,96417.36
2018-04-12T15:57:13.562Z,96411.19
2018-04-12T15:59:41.105Z,96414.23
2018-04-12T16:02:08.922Z,96421.93
2018-04-12T16:04:36.595Z,96412.34
2018-04-12T16:07:04.298Z,96418.59
2018-04-12T16:09:31.954Z,96418.90
2018-04-12T16:11:59.720Z,96414.53
2018-04-12T16:14:27.599Z,96423.30
2018-04-12T16:16:55.341Z,96429.81
2018-04-12T16:19:23.059Z,96428.62
2018-04-12T16:21:50.739Z,96427.95
2018-04-12T16:24:18.550Z,96429.30
2018-04-12T16:26:46.307Z,96428.02
2018-04-12T16:29:14.047Z,96422.14
2018-04-12T16:31:41.676Z,96424.43
2018-04-12T16:34:09.387Z,96424.47
2018-04-12T16:36:37.065Z,96415.65
2018-04-12T16:39:06.824Z,96422.69
2018-04-12T16:41:34.390Z,96418.48
2018-04-12T16:44:02.088Z,96423.00
2018-04-12T16:46:29.881Z,96414.63
2018-04-12T16:48:57.987Z,96415.09
2018-04-12T16:51:26.143Z,96399.16
2018-04-12T16:53:53.960Z,96401.57
2018-04-12T16:56:22.083Z,96403.91
2018-04-12T16:58:50.399Z,96415.12
2018-04-12T17:01:18.698Z,96412.66
2018-04-12T17:03:46.922Z,96407.93
2018-04-12T17:06:15.068Z,96408.78
2018-04-12T17:08:43.966Z,96410.14
2018-04-12T17:11:11.952Z,96410.73
2018-04-12T17:13:39.604Z,96416.99
2018-04-12T17:16:07.822Z,96412.46
2018-04-12T17:18:35.462Z,96413.47
2018-04-12T17:21:03.232Z,96410.75
2018-04-12T17:23:31.084Z,96409.00
2018-04-12T17:25:58.773Z,96406.86
2018-04-12T17:28:26.557Z,96410.83
2018-04-12T17:30:54.333Z,96404.95
2018-04-12T17:33:22.083Z,96409.10
2018-04-12T17:35:49.822Z,96413.36
2018-04-12T17:38:17.548Z,96414.06
2018-04-12T17:40:45.237Z,96419.19
2018-04-12T17:43:12.927Z,96419.10
2018-04-12T17:45:40.813Z,96423.44
2018-04-12T17:48:08.663Z,96413.06
2018-04-12T17:50:36.384Z,96415.89
2018-04-12T17:53:04.321Z,96416.57
2018-04-12T17:55:32.118Z,96414.73
2018-04-12T17:57:59.945Z,96419.48
2018-04-12T18:00:27.756Z,96417.89
2018-04-12T18:02:55.534Z,96417.04
2018-04-12T18:05:23.237Z,96427.50
2018-04-12T18:07:51.007Z,96431.42
2018-04-12T18:10:18.794Z,96427.77
2018-04-12T18:12:46.552Z,96436.78
2018-04-12T18:15:14.239Z,96440.39
2018-04-12T18:17:41.852Z,96433.99
2018-04-12T18:20:09.654Z,96433.41
2018-04-12T18:22:37.447Z,96438.52
2018-04-12T18:25:05.324Z,96444.48
2018-04-12T18:27:32.903Z,96447.98
2018-04-12T18:30:00.492Z,96450.14
2018-04-12T18:32:28.203Z,96448.17
2018-04-12T18:34:55.907Z,96449.61
2018-04-12T18:37:23.869Z,96449.29
2018-04-12T18:39:51.422Z,96454.42
2018-04-12T18:42:19.023Z,96459.20
2018-04-12T18:44:46.868Z,96463.48
2018-04-12T18:47:14.824Z,96466.33
2018-04-12T18:49:42.588Z,96466.55
2018-04-12T18:52:10.166Z,96475.23
2018-04-12T18:54:37.845Z,96471.00
2018-04-12T18:57:05.519Z,96472.84
2018-04-12T18:59:33.322Z,96483.28
2018-04-12T19:02:01.117Z,96492.12
2018-04-12T19:04:28.875Z,96492.89
2018-04-12T19:06:56.718Z,96495.56
2018-04-12T19:09:24.395Z,96498.94
2018-04-12T19:11:52.765Z,96501.12
2018-04-12T19:14:20.460Z,96501.98
2018-04-12T19:16:48.180Z,96493.60
2018-04-12T19:19:15.934Z,96500.92
2018-04-12T19:21:43.729Z,96503.72
2018-04-12T19:24:11.477Z,96501.16
2018-04-12T19:26:39.148Z,96505.13
2018-04-12T19:29:06.849Z,96497.25
2018-04-12T19:31:34.640Z,96498.27
2018-04-12T19:34:02.234Z,96489.02
2018-04-12T19:36:30.012Z,96497.05
2018-04-12T19:38:57.727Z,96495.14
2018-04-12T19:41:25.626Z,96503.11
2018-04-12T19:43:53.623Z,96499.38
2018-04-12T19:46:21.523Z,96505.36
2018-04-12T19:48:49.146Z,96506.22
2018-04-12T19:51:16.779Z,96504.56
2018-04-12T19:53:44.518Z,96508.27
2018-04-12T19:56:12.304Z,96508.27
2018-04-12T19:58:39.917Z,96512.20
2018-04-12T20:01:07.744Z,96506.25
2018-04-12T20:03:35.361Z,96508.36
2018-04-12T20:06:03.044Z,96507.45
2018-04-12T20:08:30.837Z,96500.49
2018-04-12T20:10:58.556Z,96500.92
2018-04-12T20:13:26.307Z,96510.55
2018-04-12T20:15:54.154Z,96505.13
2018-04-12T20:18:21.903Z,96502.16
2018-04-12T20:20:49.534Z,96509.34
2018-04-12T20:23:17.227Z,96507.63
2018-04-12T20:25:44.934Z,96506.05
2018-04-12T20:28:12.590Z,96509.33
2018-04-12T20:30:40.259Z,96514.41
2018-04-12T20:33:08.008Z,96508.96
2018-04-12T20:35:35.702Z,96512.14
2018-04-12T20:38:03.253Z,96508.66
2018-04-12T20:40:31.218Z,96517.54
2018-04-12T20:42:59.033Z,96510.05
2018-04-12T20:45:26.841Z,96506.93
2018-04-12T20:47:54.714Z,96513.45
2018-04-12T20:50:22.477Z,96511.17
2018-04-12T20:52:50.110Z,96515.95
2018-04-12T20:55:17.844Z,96519.05
2018-04-12T20:57:45.518Z,96514.55
2018-04-12T21:00:13.301Z,96512.52
2018-04-12T21:02:40.916Z,96505.63
2018-04-12T21:05:08.782Z,96502.09
2018-04-12T21:07:36.424Z,96508.18
2018-04-12T21:10:04.189Z,96509.16
2018-04-12T21:12:31.819Z,96503.55
2018-04-12T21:14:59.565Z,96501.05
2018-04-12T21:17:27.227Z,96507.78
2018-04-12T21:19:55.121Z,96516.73
2018-04-12T21:22:22.873Z,96519.04
2018-04-12T21:24:50.532Z,96518.48
2018-04-12T21:27:18.269Z,96514.39
2018-04-12T21:29:45.887Z,96507.67
2018-04-12T21:32:13.647Z,96512.06
2018-04-12T21:34:41.468Z,96509.36
2018-04-12T21:37:09.059Z,96503.53
2018-04-12T21:39:36.815Z,96507.96
2018-04-12T21:42:04.375Z,96504.93
2018-04-12T21:44:32.110Z,96501.52
2018-04-12T21:46:59.783Z,96502.72
2018-04-12T21:49:27.585Z,96504.69
2018-04-12T21:51:55.180Z,96502.29
2018-04-12T21:54:22.749Z,96503.70
2018-04-12T21:56:50.499Z,96503.93
2018-04-12T21:59:18.278Z,96511.54
2018-04-12T22:01:46.009Z,96505.01
2018-04-12T22:04:13.545Z,96509.95
2018-04-12T22:06:41.152Z,96512.31
2018-04-12T22:09:08.959Z,96509.77
2018-04-12T22:11:36.655Z,96514.11
2018-04-12T22:14:04.549Z,96521.08
2018-04-12T22:16:32.282Z,96513.41
2018-04-12T22:18:59.848Z,96508.36
2018-04-12T22:21:27.649Z,96514.20
2018-04-12T22:23:55.268Z,96510.33
2018-04-12T22:26:22.847Z,96519.89
2018-04-12T22:28:50.671Z,96519.38
2018-04-12T22:31:18.526Z,96518.34
2018-04-12T22:33:46.067Z,96515.65
2018-04-12T22:36:13.708Z,96522.14
2018-04-12T22:38:41.408Z,96525.48
2018-04-12T22:41:09.123Z,96519.75
2018-04-12T22:43:36.859Z,96517.80
2018-04-12T22:46:04.470Z,96524.27
2018-04-12T22:48:32.330Z,96532.59
2018-04-12T22:51:00.100Z,96541.40
2018-04-12T22:53:27.915Z,96534.43
2018-04-12T22:55:55.508Z,96536.75
2018-04-12T22:58:23.271Z,96539.81
2018-04-12T23:00:52.059Z,96538.86
2018-04-12T23:03:19.832Z,96536.55
2018-04-12T23:05:47.730Z,96543.91
2018-04-12T23:08:15.474Z,96556.23
2018-04-12T23:10:43.275Z,96550.64
2018-04-12T23:23:14.210Z,96564.72
2018-04-12T23:25:41.874Z,96562.86
2018-04-12T23:28:09.544Z,96560.34
2018-04-12T23:30:37.783Z,96560.11
2018-04-12T23:33:05.519Z,96562.54
2018-04-12T23:35:33.183Z,96558.58
2018-04-12T23:38:00.935Z,96553.72
2018-04-12T23:40:28.615Z,96555.72
2018-04-12T23:42:56.298Z,96553.46
2018-04-12T23:45:23.905Z,96557.57
2018-04-12T23:47:51.654Z,96560.95
2018-04-12T23:50:19.238Z,96565.31
2018-04-12T23:52:46.889Z,96556.06
2018-04-12T23:55:14.671Z,96558.05
2018-04-12T23:57:42.574Z,96562.68
